メインページ
METAR-TAF:

METAR-TAF

空港 :

クマック, ニューカレドニア

緯度: 20-34S, 経度: 164-17E, 海抜: 23m

METAR: 見つかりません

時間: 00:01 (13:01 UTC)

予報

当レポートは8時間1分前の05:00(UTC)に作成
予報は10日の 06時(UTC)から 11日の 06時(UTC)まで有効
南/南東の風 14kt
視程10km以上
高度4300ftの雲は散在している
10日の 06時(UTC)から 10日の 08時(UTC)まで徐々に
の風 8kt
11日の 00時(UTC)から 11日の 02時(UTC)まで徐々に
の風 12kt

TAF: NWWK 100500Z 1006/1106 15014KT 9999 SCT043 BECMG 1006/1008 01008KT BECMG 1100/1102 17012KT

4,000以上の空港の気象観測と天気予報(METAR報とTAF報)

利用可能な観測所は地図上に黄色い丸と赤い丸で示す。

丸の上にカーソルを重ねると観測所名を参照できる。

次にクリックすると気象観測と天気予報を参照できる。

マップの切り替え:黒色「×」印の緑ボタンをクリックして拡大、「-」印の緑ボタンをクリックして縮小、緑色の三角印をクリックして隣りの地図に切り替え


METAR-TAF: